SWA2232 KPHX-KMSY
Flight info
| Callsign | SWA2232 |
|---|---|
| Flight time | 2h 21m |
| Altitude | 37000 |
| Route | ECLPS1 PHASE DCT ELP DCT FST J86 IAH J2 LCH AWDAD1 |
| Aircraft | B738/M-SDE2E3FGHIRWXY/LB1 |
Departure
| Time | 2026-05-04 01:41 |
|---|---|
| Airport | Phoenix Sky Harbor International Airport (KPHX) |
Arrival
| Time | 2026-05-04 04:03 |
|---|---|
| Airport | Louis Armstrong New Orleans International Airport (KMSY) |
| Time | Latitude | Longitude | Altitude | Speed | Heading |
|---|---|---|---|---|---|
| 2026-05-04 01:21 | 33.43375 | -111.99630 | 1135 ft | 0 kts | 317° |
| 2026-05-04 01:33 | 33.43367 | -111.99620 | 1135 ft | 3 kts | 309° |
| 2026-05-04 01:33 | 33.43357 | -111.99601 | 1135 ft | 3 kts | 276° |
| 2026-05-04 01:34 | 33.43359 | -111.99584 | 1134 ft | 3 kts | 220° |
| 2026-05-04 01:34 | 33.43371 | -111.99577 | 1135 ft | 1 kts | 180° |
| 2026-05-04 01:34 | 33.43376 | -111.99577 | 1135 ft | 0 kts | 180° |
| 2026-05-04 01:37 | 33.43374 | -111.99577 | 1135 ft | 4 kts | 180° |
| 2026-05-04 01:37 | 33.43310 | -111.99570 | 1131 ft | 13 kts | 158° |
| 2026-05-04 01:37 | 33.43283 | -111.99480 | 1133 ft | 12 kts | 90° |
| 2026-05-04 01:37 | 33.43283 | -111.99393 | 1133 ft | 7 kts | 90° |
| 2026-05-04 01:38 | 33.43283 | -111.99330 | 1130 ft | 9 kts | 90° |
| 2026-05-04 01:38 | 33.43264 | -111.99245 | 1134 ft | 14 kts | 140° |
| 2026-05-04 01:38 | 33.43210 | -111.99264 | 1132 ft | 0 kts | 218° |
| 2026-05-04 01:40 | 33.43167 | -111.99312 | 1136 ft | 10 kts | 223° |
| 2026-05-04 01:40 | 33.43112 | -111.99378 | 1136 ft | 13 kts | 234° |
| 2026-05-04 01:40 | 33.43103 | -111.99418 | 1135 ft | 0 kts | 268° |
| 2026-05-04 01:41 | 33.43103 | -111.99454 | 1135 ft | 19 kts | 269° |
| 2026-05-04 01:41 | 33.43103 | -111.99981 | 1133 ft | 106 kts | 270° |
| 2026-05-04 01:41 | 33.43103 | -112.01170 | 1179 ft | 173 kts | 270° |
| 2026-05-04 01:41 | 33.43099 | -112.02652 | 2035 ft | 182 kts | 270° |
| 2026-05-04 01:42 | 33.43082 | -112.04158 | 3164 ft | 180 kts | 268° |
| 2026-05-04 01:42 | 33.43040 | -112.05781 | 3643 ft | 209 kts | 268° |
| 2026-05-04 01:42 | 33.42787 | -112.07599 | 3871 ft | 234 kts | 250° |
| 2026-05-04 01:42 | 33.42183 | -112.09455 | 4418 ft | 243 kts | 249° |
| 2026-05-04 01:43 | 33.41587 | -112.11363 | 5148 ft | 248 kts | 250° |
| 2026-05-04 01:43 | 33.40969 | -112.13379 | 5687 ft | 265 kts | 250° |
| 2026-05-04 01:43 | 33.40281 | -112.15459 | 6485 ft | 272 kts | 240° |
| 2026-05-04 01:43 | 33.39009 | -112.17132 | 7360 ft | 276 kts | 213° |
| 2026-05-04 01:44 | 33.37248 | -112.17948 | 8213 ft | 279 kts | 187° |
| 2026-05-04 01:44 | 33.35307 | -112.17782 | 9051 ft | 283 kts | 166° |
| 2026-05-04 01:44 | 33.33401 | -112.17118 | 9874 ft | 287 kts | 163° |
| 2026-05-04 01:44 | 33.31472 | -112.16404 | 10616 ft | 295 kts | 163° |
| 2026-05-04 01:45 | 33.29456 | -112.15571 | 10918 ft | 318 kts | 153° |
| 2026-05-04 01:45 | 33.27692 | -112.13937 | 11588 ft | 325 kts | 135° |
| 2026-05-04 01:45 | 33.24503 | -112.10024 | 13149 ft | 333 kts | 127° |
| 2026-05-04 01:46 | 33.23453 | -112.07553 | 13891 ft | 336 kts | 108° |
| 2026-05-04 01:46 | 33.22740 | -112.04877 | 14660 ft | 340 kts | 107° |
| 2026-05-04 01:46 | 33.22050 | -112.02162 | 15365 ft | 344 kts | 107° |
| 2026-05-04 01:46 | 33.21354 | -111.99408 | 16068 ft | 348 kts | 107° |
| 2026-05-04 01:47 | 33.20646 | -111.96629 | 16764 ft | 352 kts | 107° |
| 2026-05-04 01:47 | 33.19925 | -111.93826 | 17445 ft | 355 kts | 107° |
| 2026-05-04 01:47 | 33.19189 | -111.90993 | 18105 ft | 359 kts | 107° |
| 2026-05-04 01:47 | 33.18442 | -111.88132 | 18751 ft | 363 kts | 107° |
| 2026-05-04 01:48 | 33.17685 | -111.85248 | 19376 ft | 366 kts | 107° |
| 2026-05-04 01:48 | 33.16920 | -111.82339 | 19996 ft | 370 kts | 107° |
| 2026-05-04 01:48 | 33.16144 | -111.79393 | 20600 ft | 373 kts | 107° |
| 2026-05-04 01:48 | 33.15361 | -111.76425 | 21171 ft | 376 kts | 107° |
| 2026-05-04 01:49 | 33.14570 | -111.73433 | 21747 ft | 380 kts | 108° |
| 2026-05-04 01:49 | 33.13772 | -111.70411 | 22295 ft | 383 kts | 108° |
| 2026-05-04 01:49 | 33.12964 | -111.67360 | 22818 ft | 387 kts | 108° |
| 2026-05-04 01:49 | 33.12149 | -111.64287 | 23336 ft | 391 kts | 108° |
| 2026-05-04 01:50 | 33.11338 | -111.61229 | 23857 ft | 393 kts | 108° |
| 2026-05-04 01:50 | 33.10499 | -111.58068 | 24370 ft | 396 kts | 108° |
| 2026-05-04 01:50 | 33.09676 | -111.54970 | 24837 ft | 399 kts | 108° |
| 2026-05-04 01:50 | 33.08832 | -111.51801 | 25304 ft | 402 kts | 108° |
| 2026-05-04 01:51 | 33.07982 | -111.48609 | 25755 ft | 405 kts | 108° |
| 2026-05-04 01:51 | 33.07108 | -111.45403 | 26201 ft | 408 kts | 111° |
| 2026-05-04 01:51 | 33.05782 | -111.42410 | 26601 ft | 410 kts | 122° |
| 2026-05-04 01:51 | 33.04212 | -111.39554 | 27041 ft | 413 kts | 124° |
| 2026-05-04 01:52 | 33.02607 | -111.36713 | 27441 ft | 415 kts | 124° |
| 2026-05-04 01:52 | 33.00983 | -111.33842 | 27822 ft | 418 kts | 124° |
| 2026-05-04 01:52 | 32.99359 | -111.30950 | 28195 ft | 421 kts | 124° |
| 2026-05-04 01:52 | 32.97734 | -111.28030 | 28562 ft | 424 kts | 123° |
| 2026-05-04 01:53 | 32.96106 | -111.25088 | 28920 ft | 427 kts | 123° |
| 2026-05-04 01:53 | 32.94472 | -111.22124 | 29266 ft | 429 kts | 123° |
| 2026-05-04 01:53 | 32.92833 | -111.19146 | 29601 ft | 432 kts | 123° |
| 2026-05-04 01:53 | 32.91178 | -111.16139 | 29926 ft | 434 kts | 123° |
| 2026-05-04 01:54 | 32.89520 | -111.13127 | 30237 ft | 437 kts | 123° |
| 2026-05-04 01:54 | 32.87846 | -111.10090 | 30543 ft | 440 kts | 123° |
| 2026-05-04 01:54 | 32.86184 | -111.07077 | 30818 ft | 442 kts | 123° |
| 2026-05-04 01:54 | 32.84487 | -111.04005 | 31109 ft | 445 kts | 123° |
| 2026-05-04 01:55 | 32.82786 | -111.00927 | 31404 ft | 446 kts | 123° |
| 2026-05-04 01:55 | 32.81076 | -110.97837 | 31671 ft | 449 kts | 123° |
| 2026-05-04 01:55 | 32.79356 | -110.94731 | 31912 ft | 451 kts | 123° |
| 2026-05-04 01:55 | 32.77625 | -110.91608 | 32129 ft | 454 kts | 123° |
| 2026-05-04 01:56 | 32.75882 | -110.88464 | 32399 ft | 456 kts | 123° |
| 2026-05-04 01:56 | 32.74138 | -110.85322 | 32689 ft | 456 kts | 123° |
| 2026-05-04 01:56 | 32.72390 | -110.82176 | 32967 ft | 457 kts | 123° |
| 2026-05-04 01:56 | 32.70637 | -110.79022 | 33267 ft | 457 kts | 123° |
| 2026-05-04 01:57 | 32.68887 | -110.75877 | 33572 ft | 457 kts | 123° |
| 2026-05-04 01:57 | 32.67137 | -110.72732 | 33903 ft | 456 kts | 123° |
| 2026-05-04 01:57 | 32.65391 | -110.69599 | 34226 ft | 455 kts | 123° |
| 2026-05-04 01:57 | 32.63950 | -110.66266 | 34481 ft | 454 kts | 107° |
| 2026-05-04 01:58 | 32.63115 | -110.62654 | 34802 ft | 453 kts | 104° |
| 2026-05-04 01:58 | 32.62369 | -110.59080 | 35115 ft | 451 kts | 104° |
| 2026-05-04 01:58 | 32.61624 | -110.55465 | 35390 ft | 451 kts | 104° |
| 2026-05-04 01:58 | 32.60870 | -110.51860 | 35710 ft | 449 kts | 104° |
| 2026-05-04 01:59 | 32.60103 | -110.48273 | 35969 ft | 449 kts | 104° |
| 2026-05-04 01:59 | 32.59322 | -110.44690 | 36148 ft | 450 kts | 104° |
| 2026-05-04 01:59 | 32.58528 | -110.41089 | 36330 ft | 452 kts | 104° |
| 2026-05-04 01:59 | 32.57727 | -110.37479 | 36496 ft | 453 kts | 105° |
| 2026-05-04 02:00 | 32.56920 | -110.33859 | 36607 ft | 456 kts | 105° |
| 2026-05-04 02:00 | 32.56108 | -110.30223 | 36803 ft | 455 kts | 105° |
| 2026-05-04 02:00 | 32.55299 | -110.26607 | 37004 ft | 455 kts | 105° |
| 2026-05-04 02:00 | 32.54484 | -110.22960 | 36995 ft | 457 kts | 105° |
| 2026-05-04 02:01 | 32.52861 | -110.15715 | 36994 ft | 452 kts | 105° |
| 2026-05-04 02:01 | 32.51248 | -110.08531 | 36059 ft | 454 kts | 107° |
| 2026-05-04 02:02 | 32.50421 | -110.04851 | 35670 ft | 472 kts | 107° |
| 2026-05-04 02:02 | 32.49534 | -110.00951 | 34696 ft | 510 kts | 107° |
| 2026-05-04 02:02 | 32.48565 | -109.96827 | 34588 ft | 518 kts | 108° |
| 2026-05-04 02:02 | 32.47633 | -109.92797 | 35453 ft | 500 kts | 107° |
| 2026-05-04 02:03 | 32.46756 | -109.88823 | 35798 ft | 499 kts | 106° |
| 2026-05-04 02:03 | 32.45887 | -109.84866 | 35833 ft | 506 kts | 107° |
| 2026-05-04 02:03 | 32.44055 | -109.76737 | 35940 ft | 516 kts | 107° |
| 2026-05-04 02:04 | 32.42606 | -109.68325 | 36049 ft | 527 kts | 98° |
| 2026-05-04 02:04 | 32.41647 | -109.59634 | 36158 ft | 537 kts | 96° |
| 2026-05-04 02:05 | 32.40767 | -109.51891 | 36298 ft | 545 kts | 98° |
| 2026-05-04 02:05 | 32.39936 | -109.45238 | 36774 ft | 540 kts | 98° |
| 2026-05-04 02:05 | 32.38786 | -109.36404 | 36837 ft | 548 kts | 98° |
| 2026-05-04 02:06 | 32.37611 | -109.27404 | 36860 ft | 559 kts | 98° |
| 2026-05-04 02:06 | 32.36416 | -109.18220 | 36858 ft | 570 kts | 98° |
| 2026-05-04 02:07 | 32.35032 | -109.08927 | 36858 ft | 576 kts | 102° |
| 2026-05-04 02:07 | 32.33341 | -108.99730 | 36911 ft | 566 kts | 103° |
| 2026-05-04 02:08 | 32.31637 | -108.90668 | 36993 ft | 564 kts | 103° |
| 2026-05-04 02:08 | 32.29976 | -108.81596 | 37043 ft | 565 kts | 102° |
| 2026-05-04 02:09 | 32.28338 | -108.72501 | 37038 ft | 566 kts | 102° |
| 2026-05-04 02:09 | 32.26696 | -108.63398 | 37047 ft | 567 kts | 102° |
| 2026-05-04 02:10 | 32.25042 | -108.54290 | 37016 ft | 567 kts | 102° |
| 2026-05-04 02:10 | 32.23377 | -108.45181 | 36960 ft | 568 kts | 102° |
| 2026-05-04 02:11 | 32.21714 | -108.36127 | 36911 ft | 567 kts | 102° |
| 2026-05-04 02:11 | 32.20038 | -108.27035 | 36880 ft | 566 kts | 102° |
| 2026-05-04 02:12 | 32.18357 | -108.17958 | 36882 ft | 565 kts | 103° |
| 2026-05-04 02:12 | 32.16675 | -108.08910 | 36906 ft | 563 kts | 103° |
| 2026-05-04 02:13 | 32.14992 | -107.99892 | 36943 ft | 562 kts | 103° |
| 2026-05-04 02:13 | 32.13307 | -107.90905 | 36977 ft | 560 kts | 103° |
| 2026-05-04 02:14 | 32.11620 | -107.81941 | 36999 ft | 559 kts | 103° |
| 2026-05-04 02:14 | 32.09930 | -107.72999 | 37000 ft | 557 kts | 103° |
| 2026-05-04 02:15 | 32.08239 | -107.64089 | 36997 ft | 557 kts | 103° |
| 2026-05-04 02:15 | 32.06542 | -107.55188 | 36947 ft | 556 kts | 103° |
| 2026-05-04 02:16 | 32.04842 | -107.46300 | 36918 ft | 555 kts | 103° |
| 2026-05-04 02:16 | 32.03137 | -107.37422 | 36883 ft | 555 kts | 103° |
| 2026-05-04 02:17 | 32.01425 | -107.28545 | 36876 ft | 556 kts | 103° |
| 2026-05-04 02:17 | 31.99716 | -107.19720 | 36883 ft | 557 kts | 103° |
| 2026-05-04 02:18 | 31.97987 | -107.10824 | 36880 ft | 557 kts | 103° |
| 2026-05-04 02:18 | 31.96250 | -107.01923 | 36928 ft | 557 kts | 103° |
| 2026-05-04 02:19 | 31.94506 | -106.93024 | 36980 ft | 558 kts | 104° |
| 2026-05-04 02:19 | 31.92755 | -106.84123 | 37029 ft | 558 kts | 104° |
| 2026-05-04 02:20 | 31.90997 | -106.75220 | 37048 ft | 558 kts | 104° |
| 2026-05-04 02:20 | 31.89233 | -106.66320 | 37045 ft | 558 kts | 104° |
| 2026-05-04 02:21 | 31.87464 | -106.57431 | 37041 ft | 558 kts | 104° |
| 2026-05-04 02:21 | 31.85699 | -106.48595 | 37011 ft | 549 kts | 103° |
| 2026-05-04 02:22 | 31.83956 | -106.39899 | 37020 ft | 544 kts | 104° |
| 2026-05-04 02:22 | 31.82227 | -106.31306 | 37023 ft | 543 kts | 104° |
| 2026-05-04 02:23 | 31.80389 | -106.22711 | 37000 ft | 542 kts | 107° |
| 2026-05-04 02:23 | 31.78598 | -106.15555 | 36979 ft | 548 kts | 108° |
| 2026-05-04 02:24 | 31.76368 | -106.06913 | 36933 ft | 557 kts | 108° |
| 2026-05-04 02:24 | 31.74140 | -105.98120 | 36889 ft | 566 kts | 108° |
| 2026-05-04 02:25 | 31.71912 | -105.89196 | 36873 ft | 572 kts | 107° |
| 2026-05-04 02:25 | 31.69693 | -105.80288 | 36865 ft | 572 kts | 107° |
| 2026-05-04 02:26 | 31.67453 | -105.71340 | 36864 ft | 571 kts | 108° |
| 2026-05-04 02:26 | 31.65206 | -105.62412 | 36872 ft | 569 kts | 108° |
| 2026-05-04 02:27 | 31.62873 | -105.53179 | 36876 ft | 567 kts | 108° |
| 2026-05-04 02:27 | 31.59721 | -105.40753 | 36885 ft | 565 kts | 108° |
| 2026-05-04 02:28 | 31.57475 | -105.31930 | 36885 ft | 564 kts | 108° |
| 2026-05-04 02:28 | 31.55227 | -105.23125 | 36893 ft | 563 kts | 108° |
| 2026-05-04 02:29 | 31.52976 | -105.14339 | 36892 ft | 562 kts | 108° |
| 2026-05-04 02:29 | 31.49988 | -105.02720 | 36902 ft | 561 kts | 108° |
| 2026-05-04 02:30 | 31.45875 | -104.86799 | 36916 ft | 560 kts | 108° |
| 2026-05-04 02:30 | 31.43611 | -104.78080 | 36914 ft | 559 kts | 108° |
| 2026-05-04 02:31 | 31.40654 | -104.66724 | 36927 ft | 559 kts | 108° |
| 2026-05-04 02:31 | 31.36105 | -104.49343 | 36909 ft | 558 kts | 108° |
| 2026-05-04 02:32 | 31.31538 | -104.32003 | 36945 ft | 557 kts | 107° |
| 2026-05-04 02:32 | 31.26988 | -104.14834 | 36935 ft | 556 kts | 107° |
| 2026-05-04 02:33 | 31.24404 | -104.05124 | 36937 ft | 556 kts | 107° |
| 2026-05-04 02:33 | 31.22094 | -103.96475 | 36931 ft | 557 kts | 108° |
| 2026-05-04 02:34 | 31.19152 | -103.85494 | 36926 ft | 558 kts | 108° |
| 2026-05-04 02:34 | 31.15212 | -103.70853 | 36944 ft | 559 kts | 108° |
| 2026-05-04 02:35 | 31.12872 | -103.62195 | 36939 ft | 559 kts | 108° |
| 2026-05-04 02:35 | 31.10526 | -103.53543 | 36937 ft | 559 kts | 108° |
| 2026-05-04 02:36 | 31.08178 | -103.44903 | 36932 ft | 558 kts | 108° |
| 2026-05-04 02:36 | 31.05826 | -103.36275 | 36914 ft | 558 kts | 108° |
| 2026-05-04 02:37 | 31.03470 | -103.27656 | 36930 ft | 557 kts | 108° |
| 2026-05-04 02:37 | 31.01113 | -103.19063 | 36965 ft | 556 kts | 108° |
| 2026-05-04 02:38 | 30.98753 | -103.10480 | 36997 ft | 556 kts | 108° |
| 2026-05-04 02:38 | 30.96392 | -103.01913 | 37031 ft | 555 kts | 108° |
| 2026-05-04 02:39 | 30.94585 | -102.93202 | 37042 ft | 552 kts | 95° |
| 2026-05-04 02:39 | 30.93734 | -102.84319 | 37042 ft | 552 kts | 94° |
| 2026-05-04 02:40 | 30.92939 | -102.75436 | 37028 ft | 552 kts | 94° |
| 2026-05-04 02:40 | 30.92081 | -102.66608 | 37004 ft | 552 kts | 95° |
| 2026-05-04 02:41 | 30.91170 | -102.57725 | 36983 ft | 552 kts | 95° |
| 2026-05-04 02:41 | 30.90244 | -102.48845 | 36972 ft | 553 kts | 95° |
| 2026-05-04 02:42 | 30.89317 | -102.39962 | 36977 ft | 553 kts | 95° |
| 2026-05-04 02:42 | 30.88387 | -102.31066 | 36985 ft | 553 kts | 95° |
| 2026-05-04 02:43 | 30.87450 | -102.22168 | 36996 ft | 553 kts | 95° |
| 2026-05-04 02:43 | 30.86758 | -102.13260 | 36989 ft | 552 kts | 90° |
| 2026-05-04 02:44 | 30.86420 | -102.04342 | 37007 ft | 551 kts | 89° |
| 2026-05-04 02:44 | 30.86102 | -101.95429 | 37007 ft | 551 kts | 90° |
| 2026-05-04 02:45 | 30.85716 | -101.86519 | 37003 ft | 551 kts | 90° |
| 2026-05-04 02:45 | 30.85290 | -101.77682 | 37018 ft | 550 kts | 90° |
| 2026-05-04 02:46 | 30.84850 | -101.68801 | 37017 ft | 550 kts | 90° |
| 2026-05-04 02:46 | 30.84408 | -101.59926 | 37028 ft | 549 kts | 90° |
| 2026-05-04 02:47 | 30.83964 | -101.51062 | 37042 ft | 548 kts | 91° |
| 2026-05-04 02:47 | 30.83516 | -101.42208 | 37077 ft | 548 kts | 91° |
| 2026-05-04 02:48 | 30.83062 | -101.33366 | 37096 ft | 547 kts | 91° |
| 2026-05-04 02:48 | 30.82602 | -101.24526 | 37110 ft | 547 kts | 91° |
| 2026-05-04 02:49 | 30.82135 | -101.15690 | 37112 ft | 547 kts | 91° |
| 2026-05-04 02:49 | 30.81664 | -101.06863 | 37096 ft | 547 kts | 91° |
| 2026-05-04 02:50 | 30.81186 | -100.98031 | 37088 ft | 547 kts | 91° |
| 2026-05-04 02:50 | 30.80702 | -100.89213 | 37071 ft | 547 kts | 91° |
| 2026-05-04 02:51 | 30.80212 | -100.80387 | 37088 ft | 547 kts | 91° |
| 2026-05-04 02:51 | 30.79716 | -100.71560 | 37098 ft | 547 kts | 91° |
| 2026-05-04 02:52 | 30.79214 | -100.62730 | 37105 ft | 547 kts | 91° |
| 2026-05-04 02:52 | 30.78705 | -100.53883 | 37099 ft | 547 kts | 91° |
| 2026-05-04 02:53 | 30.78194 | -100.45107 | 37089 ft | 548 kts | 91° |
| 2026-05-04 02:53 | 30.77674 | -100.36268 | 37067 ft | 548 kts | 91° |
| 2026-05-04 02:54 | 30.77147 | -100.27431 | 37054 ft | 548 kts | 91° |
| 2026-05-04 02:54 | 30.76613 | -100.18582 | 37056 ft | 548 kts | 91° |
| 2026-05-04 02:55 | 30.75801 | -100.05304 | 37056 ft | 549 kts | 91° |
| 2026-05-04 02:56 | 30.75253 | -99.96453 | 37060 ft | 549 kts | 91° |
| 2026-05-04 02:56 | 30.74702 | -99.87663 | 37073 ft | 549 kts | 91° |
| 2026-05-04 02:57 | 30.74141 | -99.78819 | 37073 ft | 549 kts | 92° |
| 2026-05-04 02:57 | 30.73575 | -99.69973 | 37076 ft | 548 kts | 92° |
| 2026-05-04 02:58 | 30.73002 | -99.61132 | 37072 ft | 548 kts | 92° |
| 2026-05-04 02:58 | 30.72424 | -99.52287 | 37063 ft | 548 kts | 92° |
| 2026-05-04 02:59 | 30.71839 | -99.43447 | 37053 ft | 548 kts | 92° |
| 2026-05-04 02:59 | 30.71249 | -99.34615 | 37054 ft | 549 kts | 92° |
| 2026-05-04 03:00 | 30.70652 | -99.25765 | 37058 ft | 549 kts | 92° |
| 2026-05-04 03:00 | 30.70049 | -99.16924 | 37053 ft | 549 kts | 92° |
| 2026-05-04 03:01 | 30.69441 | -99.08085 | 37061 ft | 549 kts | 92° |
| 2026-05-04 03:01 | 30.68826 | -98.99241 | 37075 ft | 549 kts | 92° |
| 2026-05-04 03:02 | 30.68210 | -98.90472 | 37085 ft | 548 kts | 92° |
| 2026-05-04 03:02 | 30.67579 | -98.81577 | 37106 ft | 548 kts | 92° |
| 2026-05-04 03:03 | 30.66952 | -98.72811 | 37119 ft | 549 kts | 92° |
| 2026-05-04 03:03 | 30.66313 | -98.63978 | 37113 ft | 549 kts | 92° |
| 2026-05-04 03:04 | 30.65668 | -98.55135 | 37108 ft | 549 kts | 92° |
| 2026-05-04 03:04 | 30.65017 | -98.46291 | 37112 ft | 549 kts | 92° |
| 2026-05-04 03:05 | 30.64360 | -98.37467 | 37114 ft | 548 kts | 92° |
| 2026-05-04 03:05 | 30.63703 | -98.28705 | 37131 ft | 548 kts | 92° |
| 2026-05-04 03:06 | 30.63036 | -98.19882 | 37130 ft | 549 kts | 92° |
| 2026-05-04 03:06 | 30.62361 | -98.11053 | 37119 ft | 549 kts | 92° |
| 2026-05-04 03:07 | 30.61680 | -98.02216 | 37149 ft | 549 kts | 92° |
| 2026-05-04 03:07 | 30.60994 | -97.93391 | 37152 ft | 549 kts | 92° |
| 2026-05-04 03:08 | 30.60301 | -97.84562 | 37144 ft | 549 kts | 92° |
| 2026-05-04 03:08 | 30.59602 | -97.75729 | 37126 ft | 549 kts | 92° |
| 2026-05-04 03:09 | 30.58897 | -97.66897 | 37135 ft | 549 kts | 92° |
| 2026-05-04 03:09 | 30.58191 | -97.58128 | 37124 ft | 549 kts | 92° |
| 2026-05-04 03:10 | 30.57475 | -97.49307 | 37119 ft | 549 kts | 92° |
| 2026-05-04 03:10 | 30.56753 | -97.40493 | 37107 ft | 549 kts | 92° |
| 2026-05-04 03:11 | 30.56026 | -97.31680 | 37102 ft | 549 kts | 92° |
| 2026-05-04 03:11 | 30.55416 | -97.24352 | 37099 ft | 548 kts | 92° |
| 2026-05-04 03:12 | 30.54677 | -97.15537 | 37106 ft | 549 kts | 92° |
| 2026-05-04 03:12 | 30.53934 | -97.06736 | 37103 ft | 549 kts | 92° |
| 2026-05-04 03:13 | 30.53184 | -96.97930 | 37111 ft | 548 kts | 92° |
| 2026-05-04 03:13 | 30.52427 | -96.89127 | 37124 ft | 548 kts | 92° |
| 2026-05-04 03:14 | 30.51665 | -96.80322 | 37135 ft | 548 kts | 92° |
| 2026-05-04 03:14 | 30.50898 | -96.71526 | 37128 ft | 548 kts | 92° |
| 2026-05-04 03:15 | 30.50138 | -96.62735 | 37126 ft | 548 kts | 91° |
| 2026-05-04 03:15 | 30.49675 | -96.53935 | 37115 ft | 546 kts | 89° |
| 2026-05-04 03:16 | 30.49351 | -96.45140 | 37108 ft | 546 kts | 88° |
| 2026-05-04 03:16 | 30.48988 | -96.36351 | 37116 ft | 546 kts | 89° |
| 2026-05-04 03:17 | 30.48572 | -96.27561 | 37118 ft | 546 kts | 89° |
| 2026-05-04 03:17 | 30.48133 | -96.18765 | 37077 ft | 547 kts | 89° |
| 2026-05-04 03:18 | 30.47689 | -96.09954 | 37043 ft | 547 kts | 89° |
| 2026-05-04 03:18 | 30.47242 | -96.01148 | 36996 ft | 547 kts | 89° |
| 2026-05-04 03:19 | 30.46792 | -95.92343 | 36988 ft | 547 kts | 89° |
| 2026-05-04 03:19 | 30.46338 | -95.83591 | 37002 ft | 548 kts | 89° |
| 2026-05-04 03:20 | 30.45872 | -95.74716 | 37052 ft | 548 kts | 89° |
| 2026-05-04 03:20 | 30.45405 | -95.65964 | 37095 ft | 548 kts | 89° |
| 2026-05-04 03:21 | 30.44930 | -95.57142 | 37125 ft | 548 kts | 89° |
| 2026-05-04 03:21 | 30.44448 | -95.48314 | 37140 ft | 549 kts | 89° |
| 2026-05-04 03:22 | 30.43960 | -95.39494 | 37140 ft | 549 kts | 89° |
| 2026-05-04 03:22 | 30.43466 | -95.30664 | 37135 ft | 549 kts | 89° |
| 2026-05-04 03:23 | 30.42966 | -95.21844 | 37133 ft | 549 kts | 89° |
| 2026-05-04 03:23 | 30.42460 | -95.13014 | 37131 ft | 549 kts | 89° |
| 2026-05-04 03:24 | 30.41948 | -95.04192 | 37133 ft | 548 kts | 89° |
| 2026-05-04 03:24 | 30.41431 | -94.95376 | 37130 ft | 548 kts | 89° |
| 2026-05-04 03:25 | 30.40908 | -94.86564 | 37124 ft | 548 kts | 89° |
| 2026-05-04 03:25 | 30.40383 | -94.77814 | 37127 ft | 548 kts | 89° |
| 2026-05-04 03:26 | 30.39848 | -94.69001 | 37128 ft | 548 kts | 89° |
| 2026-05-04 03:26 | 30.39307 | -94.60195 | 37130 ft | 548 kts | 89° |
| 2026-05-04 03:27 | 30.38761 | -94.51391 | 37131 ft | 548 kts | 89° |
| 2026-05-04 03:27 | 30.38209 | -94.42598 | 37134 ft | 547 kts | 89° |
| 2026-05-04 03:28 | 30.37651 | -94.33796 | 37133 ft | 547 kts | 89° |
| 2026-05-04 03:28 | 30.37089 | -94.25015 | 37135 ft | 547 kts | 90° |
| 2026-05-04 03:29 | 30.36523 | -94.16284 | 37140 ft | 547 kts | 90° |
| 2026-05-04 03:29 | 30.35948 | -94.07494 | 37136 ft | 547 kts | 90° |
| 2026-05-04 03:30 | 30.35368 | -93.98720 | 37135 ft | 546 kts | 90° |
| 2026-05-04 03:30 | 30.34782 | -93.89948 | 37144 ft | 546 kts | 90° |
| 2026-05-04 03:31 | 30.34191 | -93.81182 | 37146 ft | 546 kts | 90° |
| 2026-05-04 03:31 | 30.33595 | -93.72477 | 37114 ft | 533 kts | 90° |
| 2026-05-04 03:32 | 30.33009 | -93.64049 | 37145 ft | 521 kts | 90° |
| 2026-05-04 03:32 | 30.32436 | -93.55761 | 37151 ft | 518 kts | 90° |
| 2026-05-04 03:32 | 30.32148 | -93.51646 | 37129 ft | 506 kts | 90° |
| 2026-05-04 03:33 | 30.31864 | -93.47647 | 37130 ft | 492 kts | 89° |
| 2026-05-04 03:33 | 30.31585 | -93.43752 | 37136 ft | 479 kts | 89° |
| 2026-05-04 03:33 | 30.31313 | -93.39964 | 37134 ft | 465 kts | 89° |
| 2026-05-04 03:34 | 30.30788 | -93.32514 | 37179 ft | 469 kts | 89° |
| 2026-05-04 03:34 | 30.30255 | -93.24882 | 37173 ft | 482 kts | 89° |
| 2026-05-04 03:35 | 30.29694 | -93.17051 | 37171 ft | 493 kts | 89° |
| 2026-05-04 03:35 | 30.29112 | -93.09112 | 37163 ft | 497 kts | 90° |
| 2026-05-04 03:36 | 30.28522 | -93.01211 | 37140 ft | 487 kts | 90° |
| 2026-05-04 03:36 | 30.27944 | -92.93470 | 37166 ft | 486 kts | 90° |
| 2026-05-04 03:36 | 30.27650 | -92.89527 | 36951 ft | 487 kts | 90° |
| 2026-05-04 03:37 | 30.27359 | -92.85624 | 36234 ft | 488 kts | 90° |
| 2026-05-04 03:37 | 30.27069 | -92.81743 | 35289 ft | 494 kts | 90° |
| 2026-05-04 03:37 | 30.26771 | -92.77750 | 34368 ft | 501 kts | 91° |
| 2026-05-04 03:37 | 30.26467 | -92.73734 | 33585 ft | 500 kts | 91° |
| 2026-05-04 03:38 | 30.26160 | -92.69753 | 33042 ft | 493 kts | 91° |
| 2026-05-04 03:38 | 30.25855 | -92.65832 | 32554 ft | 486 kts | 90° |
| 2026-05-04 03:38 | 30.25555 | -92.61969 | 32026 ft | 480 kts | 90° |
| 2026-05-04 03:38 | 30.25257 | -92.58140 | 31463 ft | 475 kts | 90° |
| 2026-05-04 03:39 | 30.24964 | -92.54353 | 30909 ft | 471 kts | 90° |
| 2026-05-04 03:39 | 30.24671 | -92.50592 | 30385 ft | 467 kts | 90° |
| 2026-05-04 03:39 | 30.24382 | -92.46876 | 29802 ft | 462 kts | 90° |
| 2026-05-04 03:39 | 30.24094 | -92.43202 | 29238 ft | 455 kts | 90° |
| 2026-05-04 03:40 | 30.23809 | -92.39579 | 28616 ft | 451 kts | 90° |
| 2026-05-04 03:40 | 30.23526 | -92.35949 | 27647 ft | 456 kts | 90° |
| 2026-05-04 03:40 | 30.23241 | -92.32333 | 27349 ft | 442 kts | 91° |
| 2026-05-04 03:40 | 30.22961 | -92.28855 | 27069 ft | 429 kts | 91° |
| 2026-05-04 03:41 | 30.22687 | -92.25441 | 26536 ft | 425 kts | 91° |
| 2026-05-04 03:41 | 30.22417 | -92.22052 | 25961 ft | 421 kts | 91° |
| 2026-05-04 03:41 | 30.22150 | -92.18697 | 25464 ft | 417 kts | 91° |
| 2026-05-04 03:41 | 30.21884 | -92.15382 | 24998 ft | 411 kts | 91° |
| 2026-05-04 03:42 | 30.21620 | -92.12110 | 24540 ft | 406 kts | 91° |
| 2026-05-04 03:42 | 30.21360 | -92.08893 | 24128 ft | 399 kts | 92° |
| 2026-05-04 03:42 | 30.21103 | -92.05728 | 23774 ft | 391 kts | 92° |
| 2026-05-04 03:42 | 30.20850 | -92.02627 | 23374 ft | 383 kts | 92° |
| 2026-05-04 03:43 | 30.20600 | -91.99566 | 23029 ft | 381 kts | 92° |
| 2026-05-04 03:43 | 30.20352 | -91.96523 | 22678 ft | 379 kts | 92° |
| 2026-05-04 03:43 | 30.20108 | -91.93537 | 22362 ft | 377 kts | 92° |
| 2026-05-04 03:43 | 30.19861 | -91.90529 | 22012 ft | 374 kts | 92° |
| 2026-05-04 03:44 | 30.19615 | -91.87548 | 21684 ft | 372 kts | 92° |
| 2026-05-04 03:44 | 30.19369 | -91.84580 | 21362 ft | 370 kts | 92° |
| 2026-05-04 03:44 | 30.19125 | -91.81633 | 21054 ft | 367 kts | 92° |
| 2026-05-04 03:44 | 30.18880 | -91.78700 | 20722 ft | 366 kts | 92° |
| 2026-05-04 03:45 | 30.18637 | -91.75782 | 20396 ft | 364 kts | 93° |
| 2026-05-04 03:45 | 30.18393 | -91.72876 | 20070 ft | 362 kts | 93° |
| 2026-05-04 03:45 | 30.18151 | -91.69991 | 19742 ft | 359 kts | 93° |
| 2026-05-04 03:45 | 30.17910 | -91.67124 | 19429 ft | 357 kts | 93° |
| 2026-05-04 03:46 | 30.17669 | -91.64272 | 19110 ft | 355 kts | 93° |
| 2026-05-04 03:46 | 30.17429 | -91.61438 | 18794 ft | 353 kts | 93° |
| 2026-05-04 03:46 | 30.17190 | -91.58613 | 18479 ft | 351 kts | 93° |
| 2026-05-04 03:46 | 30.16951 | -91.55810 | 18117 ft | 349 kts | 93° |
| 2026-05-04 03:47 | 30.16717 | -91.53071 | 17795 ft | 345 kts | 94° |
| 2026-05-04 03:47 | 30.16482 | -91.50318 | 17474 ft | 342 kts | 94° |
| 2026-05-04 03:47 | 30.16247 | -91.47571 | 17029 ft | 343 kts | 94° |
| 2026-05-04 03:47 | 30.16012 | -91.44839 | 16705 ft | 341 kts | 94° |
| 2026-05-04 03:48 | 30.15779 | -91.42126 | 16379 ft | 338 kts | 94° |
| 2026-05-04 03:48 | 30.15547 | -91.39437 | 16091 ft | 334 kts | 94° |
| 2026-05-04 03:48 | 30.15316 | -91.36778 | 15796 ft | 332 kts | 94° |
| 2026-05-04 03:48 | 30.15088 | -91.34150 | 15512 ft | 328 kts | 94° |
| 2026-05-04 03:49 | 30.14861 | -91.31531 | 15205 ft | 326 kts | 94° |
| 2026-05-04 03:49 | 30.14635 | -91.28941 | 14916 ft | 323 kts | 94° |
| 2026-05-04 03:49 | 30.14410 | -91.26363 | 14609 ft | 322 kts | 94° |
| 2026-05-04 03:49 | 30.14185 | -91.23798 | 14317 ft | 320 kts | 94° |
| 2026-05-04 03:50 | 30.13962 | -91.21250 | 14024 ft | 317 kts | 95° |
| 2026-05-04 03:50 | 30.13739 | -91.18719 | 13709 ft | 315 kts | 95° |
| 2026-05-04 03:50 | 30.13521 | -91.16246 | 13435 ft | 312 kts | 95° |
| 2026-05-04 03:50 | 30.13302 | -91.13766 | 13153 ft | 309 kts | 95° |
| 2026-05-04 03:51 | 30.13085 | -91.11309 | 12867 ft | 306 kts | 95° |
| 2026-05-04 03:51 | 30.12869 | -91.08880 | 12568 ft | 304 kts | 95° |
| 2026-05-04 03:51 | 30.12654 | -91.06453 | 12154 ft | 303 kts | 95° |
| 2026-05-04 03:51 | 30.12439 | -91.04036 | 11795 ft | 297 kts | 95° |
| 2026-05-04 03:52 | 30.12230 | -91.01693 | 11609 ft | 291 kts | 95° |
| 2026-05-04 03:52 | 30.12023 | -90.99374 | 11353 ft | 289 kts | 95° |
| 2026-05-04 03:52 | 30.11817 | -90.97080 | 11113 ft | 285 kts | 95° |
| 2026-05-04 03:52 | 30.11616 | -90.94829 | 10917 ft | 280 kts | 94° |
| 2026-05-04 03:53 | 30.11435 | -90.92604 | 10573 ft | 282 kts | 94° |
| 2026-05-04 03:53 | 30.11259 | -90.90342 | 10234 ft | 283 kts | 94° |
| 2026-05-04 03:53 | 30.11084 | -90.88080 | 9861 ft | 282 kts | 94° |
| 2026-05-04 03:53 | 30.10908 | -90.85831 | 9474 ft | 280 kts | 94° |
| 2026-05-04 03:54 | 30.10733 | -90.83599 | 9107 ft | 278 kts | 94° |
| 2026-05-04 03:54 | 30.10558 | -90.81387 | 8747 ft | 275 kts | 94° |
| 2026-05-04 03:54 | 30.10384 | -90.79191 | 8398 ft | 273 kts | 94° |
| 2026-05-04 03:54 | 30.10212 | -90.77016 | 8053 ft | 271 kts | 94° |
| 2026-05-04 03:55 | 30.10040 | -90.74863 | 7714 ft | 268 kts | 94° |
| 2026-05-04 03:55 | 30.09869 | -90.72725 | 7377 ft | 266 kts | 94° |
| 2026-05-04 03:55 | 30.09698 | -90.70602 | 7044 ft | 264 kts | 95° |
| 2026-05-04 03:55 | 30.09397 | -90.68516 | 6717 ft | 263 kts | 103° |
| 2026-05-04 03:56 | 30.08909 | -90.66485 | 6372 ft | 261 kts | 105° |
| 2026-05-04 03:56 | 30.08398 | -90.64483 | 6015 ft | 259 kts | 105° |
| 2026-05-04 03:56 | 30.07900 | -90.62509 | 5677 ft | 253 kts | 105° |
| 2026-05-04 03:56 | 30.07424 | -90.60575 | 5360 ft | 247 kts | 105° |
| 2026-05-04 03:57 | 30.06967 | -90.58682 | 5053 ft | 241 kts | 105° |
| 2026-05-04 03:57 | 30.06531 | -90.56861 | 4766 ft | 230 kts | 105° |
| 2026-05-04 03:57 | 30.06133 | -90.55107 | 4416 ft | 221 kts | 104° |
| 2026-05-04 03:57 | 30.05745 | -90.53431 | 4125 ft | 211 kts | 104° |
| 2026-05-04 03:58 | 30.04993 | -90.50292 | 3631 ft | 198 kts | 105° |
| 2026-05-04 03:58 | 30.04629 | -90.48789 | 3392 ft | 190 kts | 105° |
| 2026-05-04 03:58 | 30.04284 | -90.47362 | 3151 ft | 177 kts | 105° |
| 2026-05-04 03:59 | 30.03969 | -90.46059 | 2925 ft | 162 kts | 104° |
| 2026-05-04 03:59 | 30.03677 | -90.44849 | 2747 ft | 154 kts | 104° |
| 2026-05-04 03:59 | 30.03483 | -90.44047 | 2615 ft | 153 kts | 104° |
| 2026-05-04 03:59 | 30.03198 | -90.42865 | 2432 ft | 153 kts | 104° |
| 2026-05-04 04:00 | 30.02916 | -90.41693 | 2242 ft | 154 kts | 105° |
| 2026-05-04 04:00 | 30.02629 | -90.40504 | 2058 ft | 154 kts | 105° |
| 2026-05-04 04:00 | 30.02339 | -90.39302 | 1857 ft | 153 kts | 105° |
| 2026-05-04 04:00 | 30.02058 | -90.38134 | 1672 ft | 153 kts | 105° |
| 2026-05-04 04:01 | 30.01773 | -90.36950 | 1466 ft | 153 kts | 106° |
| 2026-05-04 04:01 | 30.01489 | -90.35769 | 1285 ft | 153 kts | 107° |
| 2026-05-04 04:01 | 30.01203 | -90.34585 | 1101 ft | 153 kts | 107° |
| 2026-05-04 04:01 | 30.00921 | -90.33409 | 903 ft | 151 kts | 107° |
| 2026-05-04 04:02 | 30.00640 | -90.32242 | 730 ft | 151 kts | 108° |
| 2026-05-04 04:02 | 30.00361 | -90.31079 | 526 ft | 150 kts | 107° |
| 2026-05-04 04:02 | 30.00085 | -90.29932 | 352 ft | 148 kts | 108° |
| 2026-05-04 04:02 | 29.99812 | -90.28795 | 167 ft | 147 kts | 107° |
| 2026-05-04 04:03 | 29.99532 | -90.27657 | 6 ft | 141 kts | 106° |
| 2026-05-04 04:03 | 29.99333 | -90.26802 | 16 ft | 79 kts | 106° |
| 2026-05-04 04:03 | 29.99309 | -90.26470 | 12 ft | 20 kts | 21° |
| 2026-05-04 04:03 | 29.99361 | -90.26456 | 11 ft | 2 kts | 14° |
| 2026-05-04 04:04 | 29.99374 | -90.26452 | 11 ft | 2 kts | 15° |
| 2026-05-04 04:04 | 29.99409 | -90.26440 | 11 ft | 14 kts | 21° |
| 2026-05-04 04:04 | 29.99445 | -90.26320 | 12 ft | 19 kts | 103° |
| 2026-05-04 04:04 | 29.99411 | -90.26177 | 10 ft | 18 kts | 106° |
| 2026-05-04 04:05 | 29.99373 | -90.26019 | 7 ft | 22 kts | 105° |
| 2026-05-04 04:05 | 29.99330 | -90.25848 | 8 ft | 22 kts | 116° |
| 2026-05-04 04:05 | 29.99291 | -90.25686 | 8 ft | 21 kts | 99° |
| 2026-05-04 04:05 | 29.99288 | -90.25548 | 8 ft | 4 kts | 79° |
| 2026-05-04 04:06 | 29.99295 | -90.25516 | 8 ft | 5 kts | 76° |
| 2026-05-04 04:06 | 29.99308 | -90.25472 | 8 ft | 6 kts | 69° |
| 2026-05-04 04:06 | 29.99315 | -90.25454 | 8 ft | 2 kts | 64° |
| 2026-05-04 04:06 | 29.99315 | -90.25453 | 8 ft | 0 kts | 64° |